Time;durP1;ratioP1;P1;durP2;ratioP2;P2;SDS_P1;SDS_P2;PMS_P1;PMS_P2;Temp;Humidity;BMP_temperature;BMP_pressure;BME280_temperature;BME280_humidity;BME280_pressure;Samples;Min_cycle;Max_cycle;Signal;HPM_P1;HPM_P2
2022/07/12 00:02:13;;;;;;;4.20;2.23;;;;;;;10.75;100.00;100016.16;4206688;28;20229;-65
2022/07/12 00:04:39;;;;;;;4.00;1.87;;;;;;;10.74;100.00;100014.47;4212341;28;20228;-63
2022/07/12 00:07:06;;;;;;;3.00;2.00;;;;;;;10.75;100.00;100021.50;4202886;28;22023;-63
2022/07/12 00:09:33;;;;;;;3.57;2.20;;;;;;;10.77;100.00;100016.84;4205063;28;20244;-65
2022/07/12 00:12:00;;;;;;;4.60;2.10;;;;;;;10.77;100.00;100025.66;4207092;28;20244;-63
2022/07/12 00:14:26;;;;;;;3.83;2.07;;;;;;;10.78;100.00;100021.16;4208928;28;20776;-64
2022/07/12 00:16:53;;;;;;;7.50;2.27;;;;;;;10.77;100.00;100019.50;4206077;28;20240;-65
2022/07/12 00:19:19;;;;;;;8.30;2.17;;;;;;;10.77;100.00;100020.34;4204041;28;20780;-65
2022/07/12 00:21:46;;;;;;;5.83;2.23;;;;;;;10.70;100.00;100026.41;4190087;28;20414;-62
2022/07/12 00:24:12;;;;;;;9.07;2.77;;;;;;;10.73;100.00;100024.28;4207832;28;20580;-63
2022/07/12 00:26:39;;;;;;;5.23;2.17;;;;;;;10.74;100.00;100017.13;4204179;28;20291;-65
2022/07/12 00:29:06;;;;;;;8.00;2.03;;;;;;;10.80;100.00;100024.50;4200880;28;20327;-64
2022/07/12 00:31:33;;;;;;;5.67;2.23;;;;;;;10.79;100.00;100020.16;4214510;28;20236;-62
2022/07/12 00:34:00;;;;;;;5.23;1.90;;;;;;;10.82;100.00;100021.69;4205710;28;20238;-63
2022/07/12 00:36:26;;;;;;;3.83;2.23;;;;;;;10.67;100.00;100019.59;4201580;28;23096;-66
2022/07/12 00:38:53;;;;;;;6.20;2.13;;;;;;;10.71;100.00;100014.81;4207721;28;20245;-63
2022/07/12 00:41:20;;;;;;;5.27;2.07;;;;;;;10.79;100.00;100020.16;4208469;28;20335;-63
2022/07/12 00:43:46;;;;;;;6.23;2.33;;;;;;;10.81;100.00;100009.38;4202760;28;21293;-62
2022/07/12 00:46:14;;;;;;;7.60;2.33;;;;;;;10.78;100.00;100013.19;4199977;28;20235;-65
2022/07/12 00:48:41;;;;;;;5.07;2.37;;;;;;;10.78;100.00;100005.19;4190319;28;20724;-65
2022/07/12 00:51:08;;;;;;;3.53;2.17;;;;;;;10.75;100.00;100014.34;4204092;28;20228;-62
2022/07/12 00:53:36;;;;;;;3.47;2.33;;;;;;;10.67;100.00;100011.59;4203625;28;20235;-62
2022/07/12 00:56:04;;;;;;;5.90;2.37;;;;;;;10.74;100.00;100009.97;4205701;28;20276;-65
2022/07/12 00:58:31;;;;;;;7.93;2.70;;;;;;;10.63;100.00;100006.75;4207871;28;21534;-62
2022/07/12 01:01:00;;;;;;;4.87;2.30;;;;;;;10.62;100.00;100013.06;4204511;28;20224;-61
2022/07/12 01:03:29;;;;;;;8.73;2.83;;;;;;;10.52;100.00;100013.19;4216779;28;20239;-63
2022/07/12 01:05:56;;;;;;;5.20;2.70;;;;;;;10.60;100.00;100015.88;4202952;28;20255;-65
2022/07/12 01:08:23;;;;;;;6.00;2.87;;;;;;;10.56;100.00;100017.19;4205769;28;20820;-64
2022/07/12 01:10:50;;;;;;;6.73;3.23;;;;;;;10.54;100.00;100017.34;4195326;28;20229;-63
2022/07/12 01:13:16;;;;;;;4.40;2.73;;;;;;;10.57;100.00;100013.53;4209564;28;20228;-63
2022/07/12 01:15:43;;;;;;;8.43;2.90;;;;;;;10.58;100.00;100020.50;4199603;28;20299;-66
2022/07/12 01:18:10;;;;;;;5.43;3.00;;;;;;;10.52;100.00;100018.50;4207496;28;20571;-63
2022/07/12 01:20:36;;;;;;;7.50;2.90;;;;;;;10.45;100.00;100017.44;4198890;28;25585;-63
2022/07/12 01:23:03;;;;;;;5.43;3.47;;;;;;;10.44;100.00;100024.59;4219528;28;21521;-63
2022/07/12 01:25:30;;;;;;;6.63;3.13;;;;;;;10.39;100.00;100013.56;4199433;28;20224;-65
2022/07/12 01:27:57;;;;;;;5.87;3.10;;;;;;;10.45;100.00;100012.94;4198621;28;20242;-64
2022/07/12 01:30:24;;;;;;;8.97;3.50;;;;;;;10.51;100.00;100012.34;4196397;28;20307;-64
2022/07/12 01:32:51;;;;;;;5.13;3.17;;;;;;;10.47;100.00;100005.66;4203764;28;21273;-62
2022/07/12 01:35:18;;;;;;;9.57;3.33;;;;;;;10.59;100.00;100005.41;4190459;28;20311;-62
2022/07/12 01:37:45;;;;;;;5.87;3.37;;;;;;;10.60;100.00;100009.72;4210849;28;20295;-65
2022/07/12 01:40:14;;;;;;;8.83;3.70;;;;;;;10.58;100.00;100001.88;4190270;28;20236;-61
2022/07/12 01:42:41;;;;;;;6.10;3.27;;;;;;;10.66;100.00;100001.13;4215907;28;20237;-62
2022/07/12 01:45:08;;;;;;;6.27;3.40;;;;;;;10.65;100.00;100004.78;4204389;28;21795;-62
2022/07/12 01:47:35;;;;;;;12.50;3.63;;;;;;;10.64;100.00;100005.78;4208054;28;20240;-64
2022/07/12 01:50:04;;;;;;;9.63;3.50;;;;;;;10.58;100.00;99999.22;4204545;28;22684;-63
2022/07/12 01:52:31;;;;;;;5.67;3.67;;;;;;;10.56;100.00;99991.44;4214389;28;22009;-62
2022/07/12 01:54:57;;;;;;;8.60;3.57;;;;;;;10.65;100.00;100004.78;4208374;28;23830;-64
2022/07/12 01:57:25;;;;;;;6.83;3.93;;;;;;;10.67;100.00;99992.16;4206832;28;21130;-62
2022/07/12 01:59:52;;;;;;;4.70;3.50;;;;;;;10.67;100.00;99986.81;4213487;28;20235;-65
2022/07/12 02:02:18;;;;;;;13.47;4.07;;;;;;;10.65;100.00;99988.81;4196439;28;23302;-63
2022/07/12 02:04:45;;;;;;;6.93;4.20;;;;;;;10.65;100.00;99979.03;4209956;28;20236;-63
2022/07/12 02:07:12;;;;;;;9.03;3.83;;;;;;;10.66;100.00;99979.84;4209522;28;22082;-64
2022/07/12 02:09:39;;;;;;;6.57;4.50;;;;;;;10.67;100.00;99977.00;4212954;28;20613;-63
2022/07/12 02:12:06;;;;;;;7.07;4.37;;;;;;;10.72;100.00;99977.41;4213727;28;21516;-63
2022/07/12 02:14:32;;;;;;;8.70;3.80;;;;;;;10.71;100.00;99982.88;4205456;28;20700;-63
2022/07/12 02:16:59;;;;;;;9.20;4.10;;;;;;;10.75;100.00;99987.72;4224634;28;20236;-62
2022/07/12 02:19:26;;;;;;;8.67;4.10;;;;;;;10.77;100.00;99983.06;4211483;28;20589;-63
2022/07/12 02:21:52;;;;;;;6.27;4.00;;;;;;;10.82;100.00;99985.28;4195468;28;21069;-66
2022/07/12 02:24:19;;;;;;;9.03;3.87;;;;;;;10.80;100.00;99976.59;4208408;28;20232;-62
2022/07/12 02:26:45;;;;;;;7.70;4.50;;;;;;;10.83;100.00;99975.44;4218962;28;20251;-64
2022/07/12 02:29:12;;;;;;;5.87;3.83;;;;;;;10.87;100.00;99974.97;4208520;28;20687;-63
2022/07/12 02:31:39;;;;;;;6.73;3.80;;;;;;;10.88;100.00;99984.63;4205356;28;20240;-62
2022/07/12 02:34:06;;;;;;;10.33;4.03;;;;;;;10.84;100.00;99975.31;4206118;28;20256;-63
2022/07/12 02:36:33;;;;;;;9.87;3.90;;;;;;;10.85;100.00;99974.28;4214414;28;20368;-69
2022/07/12 02:39:04;;;;;;;6.83;4.20;;;;;;;10.85;100.00;99968.97;4207626;28;20224;-64
2022/07/12 02:41:31;;;;;;;11.87;4.30;;;;;;;10.89;100.00;99975.66;4203597;28;20274;-64
2022/07/12 02:43:58;;;;;;;12.37;4.87;;;;;;;11.01;100.00;99962.91;4207942;28;20240;-63
2022/07/12 02:46:25;;;;;;;8.70;4.67;;;;;;;10.99;100.00;99970.22;4202454;28;21126;-63
2022/07/12 02:48:52;;;;;;;6.90;3.90;;;;;;;11.09;100.00;99970.09;4224860;28;20235;-63
2022/07/12 02:51:18;;;;;;;8.27;3.77;;;;;;;11.01;100.00;99964.72;4211231;28;20247;-62
2022/07/12 02:53:45;;;;;;;10.47;4.00;;;;;;;11.06;100.00;99959.75;4209185;28;20319;-66
2022/07/12 02:56:12;;;;;;;9.60;4.50;;;;;;;11.03;100.00;99966.25;4206123;28;20444;-62
2022/07/12 02:58:39;;;;;;;8.83;4.47;;;;;;;11.12;100.00;99967.94;4210189;28;21434;-66
2022/07/12 03:01:05;;;;;;;17.17;4.77;;;;;;;11.14;100.00;99962.44;4197103;28;23617;-64
2022/07/12 03:03:32;;;;;;;7.67;4.50;;;;;;;11.20;100.00;99967.13;4220396;28;20232;-64
2022/07/12 03:05:58;;;;;;;10.87;4.00;;;;;;;11.27;100.00;99962.00;4217138;28;20237;-62
2022/07/12 03:08:25;;;;;;;7.70;4.13;;;;;;;11.32;100.00;99957.84;4214766;28;22197;-63
2022/07/12 03:10:51;;;;;;;8.67;4.20;;;;;;;11.25;100.00;99969.31;4217682;28;21322;-62
2022/07/12 03:13:18;;;;;;;9.27;4.53;;;;;;;11.23;100.00;99964.16;4206341;28;20761;-64
2022/07/12 03:15:47;;;;;;;9.03;4.70;;;;;;;11.25;100.00;99967.47;4216424;28;21192;-62
2022/07/12 03:18:14;;;;;;;10.40;4.37;;;;;;;11.40;100.00;99973.88;4210232;28;20300;-64
2022/07/12 03:20:41;;;;;;;10.90;4.67;;;;;;;11.37;100.00;99968.03;4214117;28;20299;-62
2022/07/12 03:23:07;;;;;;;8.83;4.07;;;;;;;11.45;100.00;99967.22;4212939;28;22860;-65
2022/07/12 03:25:35;;;;;;;7.77;4.63;;;;;;;11.49;100.00;99973.88;4204199;28;21204;-64
2022/07/12 03:28:02;;;;;;;12.73;4.70;;;;;;;11.54;100.00;99969.75;4212656;28;20232;-64
2022/07/12 03:30:28;;;;;;;11.20;4.17;;;;;;;11.53;100.00;99977.91;4220777;28;20235;-64
2022/07/12 03:32:55;;;;;;;10.13;4.10;;;;;;;11.59;100.00;99977.25;4201674;28;21154;-65
2022/07/12 03:35:22;;;;;;;11.10;4.13;;;;;;;11.69;100.00;99977.13;4209868;28;20316;-63
2022/07/12 03:37:50;;;;;;;8.13;3.70;;;;;;;11.63;100.00;99983.91;4205388;28;22514;-64
2022/07/12 03:40:18;;;;;;;11.17;4.53;;;;;;;11.67;100.00;99971.94;4216911;28;20240;-63
2022/07/12 03:42:46;;;;;;;11.13;3.63;;;;;;;11.66;100.00;99972.94;4201809;28;20244;-64
2022/07/12 03:45:13;;;;;;;11.63;3.83;;;;;;;11.67;100.00;99968.44;4213447;28;22237;-63
2022/07/12 03:47:40;;;;;;;13.67;4.07;;;;;;;11.65;100.00;99968.59;4218134;28;20230;-66
2022/07/12 03:50:10;;;;;;;10.93;4.00;;;;;;;11.62;100.00;99967.09;4230543;28;20236;-64
2022/07/12 03:52:37;;;;;;;6.83;3.97;;;;;;;11.72;100.00;99972.28;4210869;28;20631;-64
2022/07/12 03:55:05;;;;;;;8.83;3.67;;;;;;;11.63;100.00;99962.59;4219398;28;20420;-64
2022/07/12 03:57:31;;;;;;;8.80;3.80;;;;;;;11.64;100.00;99968.78;4214269;28;20242;-65
2022/07/12 03:59:58;;;;;;;8.93;4.13;;;;;;;11.73;100.00;99963.31;4222121;28;20238;-63
2022/07/12 04:02:25;;;;;;;8.90;4.30;;;;;;;11.77;100.00;99963.78;4256212;28;20240;-65
2022/07/12 04:04:52;;;;;;;7.47;4.17;;;;;;;11.79;100.00;99959.97;4242453;28;25545;-63
2022/07/12 04:07:19;;;;;;;9.83;3.80;;;;;;;11.86;100.00;99956.66;4214156;28;21147;-66
2022/07/12 04:09:45;;;;;;;9.77;4.20;;;;;;;11.78;100.00;99957.47;4243982;28;20431;-63
2022/07/12 04:12:12;;;;;;;10.83;4.13;;;;;;;11.83;100.00;99953.31;4211798;28;20299;-63
2022/07/12 04:14:40;;;;;;;9.17;4.93;;;;;;;11.86;100.00;99956.66;4230874;28;22788;-62
2022/07/12 04:17:07;;;;;;;8.13;3.70;;;;;;;11.91;100.00;99954.34;4217186;28;20331;-65
2022/07/12 04:19:34;;;;;;;10.07;3.47;;;;;;;11.96;100.00;99941.34;4238435;28;26003;-63
2022/07/12 04:22:00;;;;;;;7.47;3.67;;;;;;;12.01;100.00;99944.34;4220032;28;21592;-64
2022/07/12 04:24:27;;;;;;;9.90;3.70;;;;;;;12.07;100.00;99938.34;4204645;28;20238;-64
2022/07/12 04:26:54;;;;;;;8.50;4.10;;;;;;;12.13;100.00;99943.03;4216953;28;20229;-65
2022/07/12 04:29:20;;;;;;;8.97;3.57;;;;;;;12.24;100.00;99945.34;4207938;28;20684;-63
2022/07/12 04:31:48;;;;;;;10.90;3.80;;;;;;;12.22;100.00;99943.84;4216285;28;20358;-64
2022/07/12 04:34:16;;;;;;;9.70;3.93;;;;;;;12.25;100.00;99948.84;4236962;28;20240;-65
2022/07/12 04:36:44;;;;;;;5.53;3.47;;;;;;;12.30;100.00;99933.16;4199437;28;25734;-62
2022/07/12 04:39:11;;;;;;;8.20;4.00;;;;;;;12.48;100.00;99930.31;4204711;28;20296;-63
2022/07/12 04:41:37;;;;;;;6.67;3.27;;;;;;;12.50;100.00;99930.94;4209749;28;20249;-64
2022/07/12 04:44:05;;;;;;;6.83;3.10;;;;;;;12.53;100.00;99933.31;4232390;28;20255;-63
2022/07/12 04:46:32;;;;;;;10.80;3.27;;;;;;;12.60;100.00;99938.81;4196788;28;22277;-63
2022/07/12 04:49:00;;;;;;;10.70;3.77;;;;;;;12.58;100.00;99930.94;4217225;28;25557;-65
2022/07/12 04:51:27;;;;;;;8.83;3.50;;;;;;;12.66;100.00;99935.44;4219106;28;20880;-63
2022/07/12 04:53:53;;;;;;;8.47;3.47;;;;;;;12.64;100.00;99934.75;4223398;28;20738;-67
2022/07/12 04:56:20;;;;;;;6.77;3.53;;;;;;;12.63;100.00;99936.59;4215590;28;20461;-64
2022/07/12 04:58:47;;;;;;;5.87;3.20;;;;;;;12.72;100.00;99937.44;4207812;28;20353;-66
2022/07/12 05:01:14;;;;;;;7.77;3.47;;;;;;;12.78;100.00;99935.91;4215244;28;20240;-63
2022/07/12 05:03:41;;;;;;;6.73;3.10;;;;;;;12.80;100.00;99933.91;4215377;28;21238;-64
2022/07/12 05:06:08;;;;;;;8.30;3.07;;;;;;;12.85;100.00;99934.19;4203431;28;21881;-66
2022/07/12 05:08:35;;;;;;;7.93;3.13;;;;;;;12.94;100.00;99922.50;4211131;28;20290;-63
2022/07/12 05:11:01;;;;;;;11.57;3.93;;;;;;;12.98;100.00;99915.81;4206240;28;20240;-63
2022/07/12 05:13:28;;;;;;;7.53;3.30;;;;;;;13.01;100.00;99915.44;4210712;28;20379;-65
2022/07/12 05:15:54;;;;;;;15.67;3.60;;;;;;;13.20;100.00;99924.88;4209171;28;20227;-66
2022/07/12 05:18:21;;;;;;;6.73;3.00;;;;;;;13.26;100.00;99921.50;4203228;28;20232;-62
2022/07/12 05:20:47;;;;;;;10.23;3.30;;;;;;;13.29;100.00;99917.69;4203622;28;20244;-64
2022/07/12 05:23:17;;;;;;;8.20;3.80;;;;;;;13.32;100.00;99919.19;4206383;28;20228;-63
2022/07/12 05:25:44;;;;;;;10.43;2.97;;;;;;;13.49;100.00;99931.44;4222646;28;20239;-64
2022/07/12 05:28:11;;;;;;;5.43;2.87;;;;;;;13.51;100.00;99927.59;4195799;28;20232;-63
2022/07/12 05:30:37;;;;;;;6.53;2.70;;;;;;;13.64;100.00;99926.16;4206719;28;20228;-63
2022/07/12 05:33:05;;;;;;;14.37;2.70;;;;;;;13.75;100.00;99935.63;4211798;28;20240;-70
2022/07/12 05:35:32;;;;;;;6.83;2.80;;;;;;;13.82;100.00;99920.53;4225876;28;20276;-69
2022/07/12 05:37:58;;;;;;;7.47;2.10;;;;;;;14.05;100.00;99923.19;4210463;28;20283;-69
2022/07/12 05:40:25;;;;;;;15.23;5.53;;;;;;;14.27;100.00;99916.97;4224341;28;22207;-72
2022/07/12 05:42:51;;;;;;;5.30;3.20;;;;;;;14.32;100.00;99916.41;4211078;28;20238;-69
2022/07/12 05:45:18;;;;;;;5.40;2.33;;;;;;;14.30;100.00;99916.59;4202973;28;26517;-71
2022/07/12 05:47:45;;;;;;;13.93;2.23;;;;;;;14.45;100.00;99926.50;4208555;28;20623;-69
2022/07/12 05:50:11;;;;;;;4.77;2.03;;;;;;;14.55;100.00;99917.22;4207142;28;22167;-71
2022/07/12 05:55:26;;;;;;;3.10;2.07;;;;;;;14.47;100.00;99917.28;4200840;28;20237;-71
2022/07/12 05:57:53;;;;;;;8.23;2.40;;;;;;;14.59;100.00;99914.19;4217321;28;22265;-70
2022/07/12 06:00:19;;;;;;;3.50;1.73;;;;;;;14.60;100.00;99905.97;4213446;28;20775;-71
2022/07/12 06:02:46;;;;;;;5.57;2.10;;;;;;;14.87;100.00;99903.66;4214432;28;21121;-73
2022/07/12 06:05:12;;;;;;;9.93;2.10;;;;;;;15.02;100.00;99917.03;4209349;28;20647;-75
2022/07/12 06:07:42;;;;;;;4.27;1.60;;;;;;;14.91;100.00;99918.31;4205160;28;20237;-70
2022/07/12 06:10:09;;;;;;;4.77;1.60;;;;;;;14.98;100.00;99919.25;4199986;28;20223;-74
2022/07/12 06:12:37;;;;;;;7.77;2.67;;;;;;;15.23;100.00;99921.63;4204815;28;21057;-75
2022/07/12 06:15:06;;;;;;;2.63;1.40;;;;;;;15.20;100.00;99926.34;4199481;28;20240;-72
2022/07/12 06:17:33;;;;;;;3.97;1.30;;;;;;;15.29;100.00;99920.84;4203426;28;26122;-73
2022/07/12 06:20:00;;;;;;;4.67;1.47;;;;;;;15.41;100.00;99935.44;4194377;28;21689;-71
2022/07/12 06:22:27;;;;;;;2.10;1.23;;;;;;;15.43;99.14;99930.72;4209924;28;20241;-71
2022/07/12 06:24:54;;;;;;;5.13;1.27;;;;;;;15.39;99.33;99932.13;4209740;28;20243;-72
2022/07/12 06:27:20;;;;;;;3.97;1.40;;;;;;;15.29;100.00;99935.09;4205833;28;20358;-74
2022/07/12 06:29:47;;;;;;;7.43;1.50;;;;;;;15.23;100.00;99935.03;4220710;28;20258;-70
2022/07/12 06:32:16;;;;;;;6.27;1.73;;;;;;;15.33;100.00;99922.97;4211561;28;23868;-72
2022/07/12 06:34:43;;;;;;;6.40;1.60;;;;;;;15.46;100.00;99916.94;4193118;28;22925;-72
2022/07/12 06:37:09;;;;;;;5.60;1.40;;;;;;;15.79;99.38;99916.47;4209077;28;20220;-68
2022/07/12 06:39:36;;;;;;;4.30;1.23;;;;;;;16.30;95.54;99924.34;4197414;28;21148;-72
2022/07/12 06:42:03;;;;;;;5.20;1.30;;;;;;;16.44;94.94;99922.59;4210509;28;20245;-70
2022/07/12 06:44:30;;;;;;;3.23;1.30;;;;;;;16.52;92.93;99916.25;4207332;28;20236;-71
2022/07/12 06:46:58;;;;;;;3.80;0.97;;;;;;;16.52;93.34;99913.56;4198240;28;22008;-73
2022/07/12 06:49:25;;;;;;;3.27;1.20;;;;;;;16.77;91.80;99920.13;4193783;28;21631;-73
2022/07/12 06:51:52;;;;;;;4.37;1.37;;;;;;;16.58;91.81;99916.28;4211178;28;20482;-73
2022/07/12 06:54:18;;;;;;;10.17;1.37;;;;;;;16.48;93.54;99917.66;4196924;28;20238;-72
2022/07/12 06:56:45;;;;;;;3.17;0.97;;;;;;;16.77;91.33;99924.69;4206542;28;20287;-69
2022/07/12 06:59:11;;;;;;;2.70;1.20;;;;;;;17.10;88.74;99919.50;4210020;28;21966;-72
2022/07/12 07:01:41;;;;;;;3.13;1.00;;;;;;;17.48;86.02;99913.63;4215024;28;20608;-73
2022/07/12 07:04:08;;;;;;;4.03;1.47;;;;;;;17.54;84.97;99926.28;4215947;28;20232;-75
2022/07/12 07:06:35;;;;;;;3.37;1.40;;;;;;;17.37;85.81;99908.81;4208560;28;20229;-73
2022/07/12 07:09:02;;;;;;;3.07;1.20;;;;;;;17.39;85.33;99920.22;4235050;28;23894;-76
2022/07/12 07:11:28;;;;;;;5.03;1.10;;;;;;;17.46;83.63;99918.38;4217081;28;20236;-78
2022/07/12 07:13:55;;;;;;;4.90;1.10;;;;;;;17.18;84.40;99916.63;4224829;28;20256;-73
2022/07/12 07:16:24;;;;;;;4.60;1.00;;;;;;;17.34;84.59;99923.50;4211850;28;20240;-74
2022/07/12 07:18:50;;;;;;;5.80;1.10;;;;;;;17.68;83.35;99919.06;4219609;28;20243;-77
2022/07/12 07:21:17;;;;;;;8.33;1.00;;;;;;;17.52;82.80;99929.16;4209723;28;20255;-72
2022/07/12 07:23:44;;;;;;;2.23;0.90;;;;;;;17.38;83.34;99924.75;4228194;28;22344;-73
2022/07/12 07:26:11;;;;;;;3.37;0.73;;;;;;;17.53;83.90;99921.91;4220869;28;21248;-77
2022/07/12 07:30:52;;;;;;;5.57;1.00;;;;;;;17.80;81.31;99930.88;4219591;28;20255;-70
2022/07/12 07:31:24;;;;;;;4.70;0.90;;;;;;;17.65;80.75;99927.53;4223963;28;22509;-73
2022/07/12 07:33:50;;;;;;;3.70;1.10;;;;;;;17.81;81.44;99931.72;4218745;28;20240;-67
2022/07/12 07:36:17;;;;;;;5.63;0.90;;;;;;;18.21;79.62;99929.06;4223913;28;20229;-74
2022/07/12 07:38:46;;;;;;;2.60;0.70;;;;;;;17.63;80.69;99926.88;4207154;28;21687;-74
2022/07/12 07:41:13;;;;;;;6.60;1.10;;;;;;;17.63;81.43;99925.06;4239471;28;20620;-75
2022/07/12 07:43:39;;;;;;;4.93;0.80;;;;;;;17.70;81.37;99936.66;4221075;28;20312;-74
2022/07/12 07:46:06;;;;;;;3.60;0.80;;;;;;;17.62;81.04;99931.44;4203412;28;21228;-74
2022/07/12 07:48:39;;;;;;;2.87;0.70;;;;;;;17.98;77.76;99933.00;4199319;28;20301;-75
2022/07/12 07:51:05;;;;;;;2.47;0.87;;;;;;;18.75;76.07;99927.97;4208314;28;20227;-77
2022/07/12 07:53:32;;;;;;;9.57;1.10;;;;;;;19.35;71.66;99931.31;4182882;28;22023;-73
2022/07/12 07:55:59;;;;;;;4.53;0.80;;;;;;;19.37;71.20;99936.50;4192518;28;20306;-77
2022/07/12 07:58:26;;;;;;;3.23;0.77;;;;;;;19.10;72.01;99922.28;4207566;28;25219;-74
2022/07/12 08:00:53;;;;;;;3.57;0.80;;;;;;;18.66;71.50;99929.22;4208276;28;22140;-74
2022/07/12 08:03:20;;;;;;;3.57;0.70;;;;;;;18.41;73.99;99921.00;4207339;28;20303;-71
2022/07/12 08:05:47;;;;;;;1.87;0.90;;;;;;;18.30;75.16;99915.19;4211829;28;20259;-77
2022/07/12 08:08:14;;;;;;;1.60;0.77;;;;;;;18.72;73.29;99907.66;4225555;28;20461;-73
2022/07/12 08:10:41;;;;;;;4.20;0.90;;;;;;;18.89;71.78;99918.81;4186084;28;20297;-72
2022/07/12 08:13:07;;;;;;;4.10;1.00;;;;;;;19.15;71.61;99917.94;4221476;28;21729;-75
2022/07/12 08:15:35;;;;;;;2.30;0.90;;;;;;;19.14;72.00;99915.44;4219569;28;20240;-71
2022/07/12 08:18:03;;;;;;;3.07;0.60;;;;;;;19.16;71.58;99911.47;4220108;28;20345;-74
2022/07/12 08:20:30;;;;;;;3.80;0.70;;;;;;;18.41;73.71;99921.81;4198903;28;20232;-71
2022/07/12 08:23:15;;;;;;;2.47;0.97;;;;;;;18.04;75.22;99916.00;4196890;28;20252;-73
2022/07/12 08:25:42;;;;;;;5.53;0.97;;;;;;;17.99;74.59;99929.28;4212092;28;22016;-75
2022/07/12 08:28:08;;;;;;;3.27;1.03;;;;;;;18.07;73.71;99926.34;4216381;28;25533;-71
2022/07/12 08:30:35;;;;;;;4.40;1.20;;;;;;;18.33;71.65;99912.09;4215849;28;21547;-73
2022/07/12 08:33:11;;;;;;;1.73;0.80;;;;;;;18.55;70.84;99928.84;4187655;28;20310;-75
2022/07/12 08:35:37;;;;;;;1.57;0.90;;;;;;;18.60;71.18;99930.91;4199685;28;25047;-73
2022/07/12 08:38:04;;;;;;;5.40;1.10;;;;;;;19.06;69.52;99937.22;4197657;28;21378;-64
2022/07/12 08:40:30;;;;;;;4.40;0.93;;;;;;;19.33;69.00;99936.09;4194916;28;23576;-65
2022/07/12 08:42:57;;;;;;;3.77;1.03;;;;;;;19.49;69.61;99934.78;4213142;28;22074;-65
2022/07/12 08:45:24;;;;;;;4.70;1.10;;;;;;;19.62;67.59;99931.19;4214794;28;20245;-64
2022/07/12 08:47:51;;;;;;;5.27;1.00;;;;;;;19.42;68.42;99933.16;4201210;28;22707;-48
2022/07/12 08:50:19;;;;;;;6.63;1.00;;;;;;;19.15;70.57;99922.47;4202301;28;22426;-53
2022/07/12 08:52:47;;;;;;;4.40;0.83;;;;;;;19.03;70.71;99925.00;4192294;28;20227;-50
2022/07/12 08:55:17;;;;;;;5.10;1.20;;;;;;;19.17;70.93;99925.78;4205996;28;21139;-46
2022/07/12 08:57:45;;;;;;;5.17;0.90;;;;;;;19.12;70.58;99922.91;4201290;28;21631;-50
2022/07/12 09:00:12;;;;;;;3.27;1.00;;;;;;;19.01;69.85;99915.47;4184874;28;20736;-52
2022/07/12 09:02:51;;;;;;;3.13;0.83;;;;;;;19.16;69.11;99921.44;4213267;28;20242;-50
2022/07/12 09:05:21;;;;;;;3.77;1.00;;;;;;;19.35;68.04;99919.69;4207659;28;22233;-64
2022/07/12 09:07:48;;;;;;;3.50;1.10;;;;;;;19.47;67.61;99917.16;4196361;28;20373;-75
2022/07/12 09:10:16;;;;;;;1.97;0.80;;;;;;;19.19;67.05;99913.75;4212802;28;20654;-74
2022/07/12 09:12:44;;;;;;;5.67;0.90;;;;;;;19.05;67.13;99919.41;4272341;28;20237;-77
2022/07/12 09:15:14;;;;;;;1.50;0.93;;;;;;;18.88;67.81;99906.41;4214997;28;20621;-75
2022/07/12 09:17:58;;;;;;;3.73;0.70;;;;;;;19.26;68.27;99911.00;4189878;28;20319;-71
2022/07/12 09:20:30;;;;;;;3.70;0.90;;;;;;;19.22;68.08;99907.09;4238951;28;20239;-72
2022/07/12 09:23:09;;;;;;;6.50;0.90;;;;;;;19.39;67.62;99912.84;4212583;28;20252;-74
2022/07/12 09:25:43;;;;;;;2.77;0.90;;;;;;;19.26;67.02;99902.91;4174701;28;20235;-74
2022/07/12 09:28:10;;;;;;;3.73;0.83;;;;;;;19.33;65.73;99908.28;4224093;28;20558;-77
2022/07/12 09:30:46;;;;;;;5.73;1.00;;;;;;;19.31;66.70;99908.50;4219754;28;21368;-78
2022/07/12 09:36:07;;;;;;;2.70;0.90;;;;;;;18.72;66.94;99904.94;4195843;28;20603;-64
2022/07/12 09:38:39;;;;;;;1.00;0.80;;;;;;;18.54;66.52;99900.25;4204123;28;20414;-63
2022/07/12 09:41:06;;;;;;;2.77;0.90;;;;;;;18.72;67.92;99907.66;4216766;28;22462;-65
2022/07/12 09:43:33;;;;;;;1.00;0.70;;;;;;;18.80;67.09;99906.66;4198446;28;22054;-61
2022/07/12 09:46:00;;;;;;;2.10;0.97;;;;;;;18.90;67.28;99901.63;4201745;28;20609;-64
2022/07/12 09:48:30;;;;;;;5.17;0.90;;;;;;;18.76;67.95;99892.75;4201581;28;20359;-64
2022/07/12 09:50:58;;;;;;;2.43;0.97;;;;;;;18.81;68.35;99881.34;4206549;28;20244;-77
2022/07/12 09:53:33;;;;;;;2.30;0.80;;;;;;;19.03;68.14;99895.34;4186041;28;20335;-78
2022/07/12 09:56:07;;;;;;;3.50;0.93;;;;;;;18.99;66.58;99902.22;4196144;28;20246;-74
2022/07/12 09:58:40;;;;;;;4.87;0.80;;;;;;;18.98;67.80;99895.97;4197873;28;20712;-76
2022/07/12 10:01:08;;;;;;;3.23;0.70;;;;;;;19.12;68.41;99904.84;4198548;28;22613;-72
2022/07/12 10:03:42;;;;;;;4.00;0.97;;;;;;;19.36;68.18;99897.91;4186352;28;23308;-76
2022/07/12 10:06:11;;;;;;;3.33;1.00;;;;;;;19.16;66.86;99892.59;4200088;28;20233;-74
2022/07/12 10:08:39;;;;;;;6.47;1.03;;;;;;;19.03;67.43;99895.34;4194816;28;20236;-75
2022/07/12 10:11:06;;;;;;;2.33;0.80;;;;;;;19.16;66.86;99894.47;4199655;28;22503;-74
2022/07/12 10:13:34;;;;;;;8.87;1.10;;;;;;;19.17;67.60;99891.56;4209851;28;20811;-78
2022/07/12 10:16:02;;;;;;;2.93;0.80;;;;;;;18.96;66.64;99887.31;4210431;28;20473;-76
2022/07/12 10:18:29;;;;;;;3.23;1.03;;;;;;;18.81;67.48;99878.63;4209265;28;22828;-71
2022/07/12 10:20:56;;;;;;;5.53;0.83;;;;;;;18.86;67.98;99886.09;4208546;28;20308;-74
2022/07/12 10:23:33;;;;;;;4.23;0.90;;;;;;;19.03;67.95;99887.25;4191083;28;23086;-70
2022/07/12 10:26:15;;;;;;;3.00;0.70;;;;;;;19.15;66.84;99880.16;4202265;28;20233;-75
2022/07/12 10:29:02;;;;;;;2.33;0.80;;;;;;;19.15;65.78;99882.00;4199642;28;25580;-68
2022/07/12 10:31:33;;;;;;;8.73;1.13;;;;;;;19.06;66.13;99880.59;4201479;28;20232;-72
2022/07/12 10:34:08;;;;;;;2.43;0.83;;;;;;;19.03;65.44;99878.34;4201139;28;20255;-73
2022/07/12 10:37:06;;;;;;;2.67;1.00;;;;;;;18.96;64.77;99873.81;4188973;28;20597;-69
2022/07/12 10:40:16;;;;;;;2.77;0.73;;;;;;;18.95;66.53;99866.75;4208092;28;21090;-65
2022/07/12 10:43:00;;;;;;;5.60;1.00;;;;;;;18.98;66.41;99869.00;4213558;28;20236;-48
2022/07/12 10:45:36;;;;;;;2.10;0.70;;;;;;;19.19;65.46;99864.38;4197073;28;20235;-51
2022/07/12 10:48:07;;;;;;;7.63;0.77;;;;;;;19.15;65.30;99857.75;4214857;28;21910;-57
2022/07/12 10:50:43;;;;;;;3.40;1.10;;;;;;;19.27;66.28;99861.44;4205888;28;20231;-59
2022/07/12 10:53:18;;;;;;;3.73;1.10;;;;;;;19.28;64.53;99867.66;4196621;28;20245;-71
2022/07/12 10:56:04;;;;;;;5.63;1.00;;;;;;;19.25;64.94;99860.00;4193468;28;20239;-71
2022/07/12 10:58:31;;;;;;;1.30;0.70;;;;;;;19.41;64.61;99867.56;4209065;28;20248;-74
2022/07/12 11:00:59;;;;;;;3.57;0.73;;;;;;;19.18;63.61;99858.16;4195415;28;20778;-75
2022/07/12 11:03:37;;;;;;;3.70;0.70;;;;;;;19.10;64.21;99854.88;4177085;28;20242;-73
2022/07/12 11:06:05;;;;;;;3.87;0.70;;;;;;;19.04;64.91;99850.34;4167962;28;20249;-74
2022/07/12 11:08:34;;;;;;;5.27;2.70;;;;;;;18.96;65.46;99852.25;4175978;28;21050;-74
2022/07/12 11:11:01;;;;;;;4.63;0.77;;;;;;;19.05;65.14;99846.59;4189821;28;23043;-76
2022/07/12 11:13:28;;;;;;;2.77;0.90;;;;;;;18.96;65.48;99849.56;4190271;28;21799;-71
2022/07/12 11:15:58;;;;;;;2.53;0.90;;;;;;;18.86;66.20;99845.66;4188215;28;20679;-63
2022/07/12 11:18:33;;;;;;;1.73;0.70;;;;;;;19.00;65.80;99843.72;4185438;28;20238;-65
2022/07/12 11:21:01;;;;;;;3.00;0.80;;;;;;;19.24;65.56;99842.13;4184587;28;21526;-65
2022/07/12 11:23:29;;;;;;;1.73;0.70;;;;;;;19.27;63.45;99839.84;4176019;28;20479;-64
2022/07/12 11:25:56;;;;;;;2.90;0.87;;;;;;;19.37;61.88;99842.88;4185764;28;20241;-63
2022/07/12 11:28:24;;;;;;;2.30;0.60;;;;;;;19.29;62.16;99839.63;4181774;28;21246;-74
2022/07/12 11:30:51;;;;;;;2.00;0.80;;;;;;;19.35;60.62;99836.88;4194082;28;21682;-71
2022/07/12 11:33:19;;;;;;;2.17;0.60;;;;;;;19.33;60.05;99841.66;4190810;28;20303;-70
2022/07/12 11:35:46;;;;;;;2.63;0.70;;;;;;;19.23;58.98;99840.50;4191777;28;20240;-72
2022/07/12 11:38:13;;;;;;;4.73;0.80;;;;;;;19.10;60.07;99846.78;4183577;28;20670;-73